sensor_id;sensor_type;location;lat;lon;timestamp;pressure;altitude;pressure_sealevel;temperature;humidity
16094;BME280;8151;47.824;12.092;2023-05-31T00:00:28;96553.84;;;16.88;54.78
16094;BME280;8151;47.824;12.092;2023-05-31T00:02:57;96550.97;;;16.90;54.94
16094;BME280;8151;47.824;12.092;2023-05-31T00:05:25;96547.47;;;16.96;54.80
16094;BME280;8151;47.824;12.092;2023-05-31T00:07:55;96537.63;;;17.03;54.65
16094;BME280;8151;47.824;12.092;2023-05-31T00:10:23;96538.47;;;17.10;54.50
16094;BME280;8151;47.824;12.092;2023-05-31T00:12:52;96543.38;;;17.13;54.30
16094;BME280;8151;47.824;12.092;2023-05-31T00:15:20;96540.94;;;17.19;54.47
16094;BME280;8151;47.824;12.092;2023-05-31T00:17:49;96536.19;;;17.21;54.40
16094;BME280;8151;47.824;12.092;2023-05-31T00:20:18;96538.25;;;17.19;54.41
16094;BME280;8151;47.824;12.092;2023-05-31T00:22:46;96545.66;;;17.17;54.59
16094;BME280;8151;47.824;12.092;2023-05-31T00:25:16;96530.00;;;17.13;54.76
16094;BME280;8151;47.824;12.092;2023-05-31T00:27:45;96532.91;;;17.12;54.71
16094;BME280;8151;47.824;12.092;2023-05-31T00:30:14;96535.78;;;17.10;54.67
16094;BME280;8151;47.824;12.092;2023-05-31T00:32:48;96538.25;;;17.12;54.59
16094;BME280;8151;47.824;12.092;2023-05-31T00:35:16;96544.00;;;17.09;54.62
16094;BME280;8151;47.824;12.092;2023-05-31T00:37:45;96537.22;;;17.06;54.60
16094;BME280;8151;47.824;12.092;2023-05-31T00:40:13;96542.97;;;16.90;54.85
16094;BME280;8151;47.824;12.092;2023-05-31T00:42:44;96543.47;;;16.59;55.48
16094;BME280;8151;47.824;12.092;2023-05-31T00:45:12;96551.41;;;16.25;56.39
16094;BME280;8151;47.824;12.092;2023-05-31T00:47:46;96552.59;;;16.16;56.84
16094;BME280;8151;47.824;12.092;2023-05-31T00:50:15;96552.41;;;16.24;56.60
16094;BME280;8151;47.824;12.092;2023-05-31T00:52:51;96546.06;;;16.25;56.33
16094;BME280;8151;47.824;12.092;2023-05-31T00:55:21;96544.25;;;16.32;56.25
16094;BME280;8151;47.824;12.092;2023-05-31T00:57:51;96547.91;;;16.31;56.15
16094;BME280;8151;47.824;12.092;2023-05-31T01:00:19;96549.34;;;16.27;56.21
16094;BME280;8151;47.824;12.092;2023-05-31T01:02:48;96551.81;;;16.29;56.51
16094;BME280;8151;47.824;12.092;2023-05-31T01:05:18;96544.56;;;16.16;56.30
16094;BME280;8151;47.824;12.092;2023-05-31T01:07:46;96538.56;;;16.01;56.89
16094;BME280;8151;47.824;12.092;2023-05-31T01:10:15;96539.94;;;15.90;56.98
16094;BME280;8151;47.824;12.092;2023-05-31T01:13:01;96540.69;;;15.77;57.43
16094;BME280;8151;47.824;12.092;2023-05-31T01:15:33;96540.72;;;15.55;57.73
16094;BME280;8151;47.824;12.092;2023-05-31T01:18:07;96537.97;;;15.42;58.23
16094;BME280;8151;47.824;12.092;2023-05-31T01:20:38;96543.47;;;15.34;58.66
16094;BME280;8151;47.824;12.092;2023-05-31T01:23:21;96544.72;;;15.38;58.32
16094;BME280;8151;47.824;12.092;2023-05-31T01:26:25;96538.94;;;15.34;58.52
16094;BME280;8151;47.824;12.092;2023-05-31T01:29:05;96533.34;;;15.29;58.20
16094;BME280;8151;47.824;12.092;2023-05-31T01:31:39;96544.47;;;15.33;57.88
16094;BME280;8151;47.824;12.092;2023-05-31T01:34:09;96546.69;;;15.29;57.90
16094;BME280;8151;47.824;12.092;2023-05-31T01:36:37;96537.53;;;15.39;57.99
16094;BME280;8151;47.824;12.092;2023-05-31T01:39:09;96541.91;;;15.46;57.94
16094;BME280;8151;47.824;12.092;2023-05-31T01:41:40;96546.00;;;15.49;57.80
16094;BME280;8151;47.824;12.092;2023-05-31T01:44:11;96544.75;;;15.45;57.79
16094;BME280;8151;47.824;12.092;2023-05-31T01:46:42;96543.69;;;15.39;58.06
16094;BME280;8151;47.824;12.092;2023-05-31T01:49:11;96546.69;;;15.29;57.93
16094;BME280;8151;47.824;12.092;2023-05-31T01:51:41;96544.59;;;15.25;58.16
16094;BME280;8151;47.824;12.092;2023-05-31T01:54:11;96542.22;;;15.36;58.03
16094;BME280;8151;47.824;12.092;2023-05-31T01:56:42;96542.16;;;15.51;57.46
16094;BME280;8151;47.824;12.092;2023-05-31T01:59:11;96536.84;;;15.58;57.42
16094;BME280;8151;47.824;12.092;2023-05-31T02:01:40;96547.16;;;15.68;57.25
16094;BME280;8151;47.824;12.092;2023-05-31T02:04:10;96548.41;;;15.72;56.92
16094;BME280;8151;47.824;12.092;2023-05-31T02:06:38;96540.88;;;15.75;56.84
16094;BME280;8151;47.824;12.092;2023-05-31T02:09:07;96545.22;;;15.83;56.57
16094;BME280;8151;47.824;12.092;2023-05-31T02:11:37;96540.97;;;15.89;56.64
16094;BME280;8151;47.824;12.092;2023-05-31T02:14:08;96544.84;;;15.86;56.71
16094;BME280;8151;47.824;12.092;2023-05-31T02:16:37;96547.59;;;15.71;56.88
16094;BME280;8151;47.824;12.092;2023-05-31T02:19:06;96551.25;;;15.64;57.40
16094;BME280;8151;47.824;12.092;2023-05-31T02:21:41;96554.16;;;15.69;57.17
16094;BME280;8151;47.824;12.092;2023-05-31T02:24:09;96546.41;;;15.74;57.28
16094;BME280;8151;47.824;12.092;2023-05-31T02:26:41;96543.34;;;15.77;57.23
16094;BME280;8151;47.824;12.092;2023-05-31T02:29:11;96540.31;;;15.80;57.04
16094;BME280;8151;47.824;12.092;2023-05-31T02:31:40;96541.31;;;15.79;56.86
16094;BME280;8151;47.824;12.092;2023-05-31T02:34:09;96547.06;;;15.76;57.33
16094;BME280;8151;47.824;12.092;2023-05-31T02:36:37;96539.88;;;15.77;57.00
16094;BME280;8151;47.824;12.092;2023-05-31T02:39:07;96541.19;;;15.66;57.39
16094;BME280;8151;47.824;12.092;2023-05-31T02:41:37;96544.03;;;15.58;57.53
16094;BME280;8151;47.824;12.092;2023-05-31T02:44:05;96543.16;;;15.50;57.93
16094;BME280;8151;47.824;12.092;2023-05-31T02:46:35;96548.47;;;15.50;58.23
16094;BME280;8151;47.824;12.092;2023-05-31T02:49:04;96546.22;;;15.47;58.36
16094;BME280;8151;47.824;12.092;2023-05-31T02:51:33;96552.34;;;15.41;58.28
16094;BME280;8151;47.824;12.092;2023-05-31T02:54:02;96551.50;;;15.41;58.03
16094;BME280;8151;47.824;12.092;2023-05-31T02:56:30;96549.66;;;15.13;58.50
16094;BME280;8151;47.824;12.092;2023-05-31T02:58:59;96553.78;;;14.94;59.01
16094;BME280;8151;47.824;12.092;2023-05-31T03:01:27;96553.31;;;14.90;59.04
16094;BME280;8151;47.824;12.092;2023-05-31T03:03:58;96545.34;;;14.90;59.04
16094;BME280;8151;47.824;12.092;2023-05-31T03:06:26;96548.22;;;14.89;59.38
16094;BME280;8151;47.824;12.092;2023-05-31T03:08:55;96545.22;;;14.99;58.73
16094;BME280;8151;47.824;12.092;2023-05-31T03:11:24;96545.09;;;15.07;58.63
16094;BME280;8151;47.824;12.092;2023-05-31T03:13:53;96543.69;;;15.11;58.66
16094;BME280;8151;47.824;12.092;2023-05-31T03:16:21;96550.34;;;15.00;58.68
16094;BME280;8151;47.824;12.092;2023-05-31T03:18:50;96542.94;;;14.95;58.65
16094;BME280;8151;47.824;12.092;2023-05-31T03:21:21;96547.22;;;14.96;58.53
16094;BME280;8151;47.824;12.092;2023-05-31T03:23:49;96546.84;;;15.00;58.72
16094;BME280;8151;47.824;12.092;2023-05-31T03:26:18;96549.72;;;14.98;58.89
16094;BME280;8151;47.824;12.092;2023-05-31T03:28:46;96551.81;;;15.03;58.80
16094;BME280;8151;47.824;12.092;2023-05-31T03:31:15;96540.13;;;15.04;58.47
16094;BME280;8151;47.824;12.092;2023-05-31T03:33:44;96547.88;;;14.99;58.81
16094;BME280;8151;47.824;12.092;2023-05-31T03:36:13;96552.81;;;15.02;58.90
16094;BME280;8151;47.824;12.092;2023-05-31T03:38:43;96552.00;;;15.01;58.53
16094;BME280;8151;47.824;12.092;2023-05-31T03:41:11;96556.44;;;14.94;59.17
16094;BME280;8151;47.824;12.092;2023-05-31T03:43:40;96558.03;;;14.88;59.00
16094;BME280;8151;47.824;12.092;2023-05-31T03:46:10;96561.72;;;14.87;59.36
16094;BME280;8151;47.824;12.092;2023-05-31T03:48:38;96565.06;;;14.96;59.00
16094;BME280;8151;47.824;12.092;2023-05-31T03:51:07;96567.72;;;14.96;58.97
16094;BME280;8151;47.824;12.092;2023-05-31T03:53:38;96567.69;;;14.89;58.86
16094;BME280;8151;47.824;12.092;2023-05-31T03:56:08;96565.16;;;14.81;59.53
16094;BME280;8151;47.824;12.092;2023-05-31T03:58:37;96566.16;;;14.80;59.48
16094;BME280;8151;47.824;12.092;2023-05-31T04:01:06;96562.41;;;14.74;59.56
16094;BME280;8151;47.824;12.092;2023-05-31T04:03:37;96560.63;;;14.60;59.76
16094;BME280;8151;47.824;12.092;2023-05-31T04:06:08;96558.19;;;14.65;59.69
16094;BME280;8151;47.824;12.092;2023-05-31T04:08:37;96570.97;;;14.70;59.62
16094;BME280;8151;47.824;12.092;2023-05-31T04:11:05;96569.00;;;14.79;59.64
16094;BME280;8151;47.824;12.092;2023-05-31T04:13:36;96570.25;;;14.83;59.70
16094;BME280;8151;47.824;12.092;2023-05-31T04:16:04;96569.31;;;14.90;59.48
16094;BME280;8151;47.824;12.092;2023-05-31T04:18:33;96581.69;;;14.98;59.20
16094;BME280;8151;47.824;12.092;2023-05-31T04:21:01;96573.50;;;15.00;59.50
16094;BME280;8151;47.824;12.092;2023-05-31T04:23:30;96579.09;;;15.05;59.55
16094;BME280;8151;47.824;12.092;2023-05-31T04:25:58;96575.41;;;15.06;59.15
16094;BME280;8151;47.824;12.092;2023-05-31T04:28:33;96577.00;;;15.00;59.96
16094;BME280;8151;47.824;12.092;2023-05-31T04:31:03;96573.94;;;15.03;59.58
16094;BME280;8151;47.824;12.092;2023-05-31T04:33:31;96581.56;;;15.06;60.09
16094;BME280;8151;47.824;12.092;2023-05-31T04:36:00;96585.91;;;15.14;59.70
16094;BME280;8151;47.824;12.092;2023-05-31T04:38:30;96583.53;;;15.19;60.02
16094;BME280;8151;47.824;12.092;2023-05-31T04:40:59;96585.63;;;15.24;60.20
16094;BME280;8151;47.824;12.092;2023-05-31T04:43:28;96580.53;;;15.29;59.84
16094;BME280;8151;47.824;12.092;2023-05-31T04:45:57;96584.44;;;15.33;59.87
16094;BME280;8151;47.824;12.092;2023-05-31T04:48:29;96592.88;;;15.36;60.09
16094;BME280;8151;47.824;12.092;2023-05-31T04:50:58;96590.66;;;15.40;60.11
16094;BME280;8151;47.824;12.092;2023-05-31T04:53:27;96585.59;;;15.45;60.06
16094;BME280;8151;47.824;12.092;2023-05-31T04:55:57;96590.94;;;15.45;59.74
16094;BME280;8151;47.824;12.092;2023-05-31T04:58:31;96585.16;;;15.42;60.11
16094;BME280;8151;47.824;12.092;2023-05-31T05:00:59;96588.19;;;15.39;60.35
16094;BME280;8151;47.824;12.092;2023-05-31T05:03:30;96583.91;;;15.38;60.49
16094;BME280;8151;47.824;12.092;2023-05-31T05:06:00;96586.16;;;15.41;60.38
16094;BME280;8151;47.824;12.092;2023-05-31T05:08:29;96585.94;;;15.35;60.71
16094;BME280;8151;47.824;12.092;2023-05-31T05:10:58;96592.88;;;15.36;60.95
16094;BME280;8151;47.824;12.092;2023-05-31T05:13:27;96585.53;;;15.39;60.74
16094;BME280;8151;47.824;12.092;2023-05-31T05:15:55;96586.34;;;15.39;61.05
16094;BME280;8151;47.824;12.092;2023-05-31T05:18:24;96589.22;;;15.38;61.15
16094;BME280;8151;47.824;12.092;2023-05-31T05:20:54;96592.53;;;15.40;61.04
16094;BME280;8151;47.824;12.092;2023-05-31T05:23:24;96598.84;;;15.39;61.49
16094;BME280;8151;47.824;12.092;2023-05-31T05:25:53;96592.13;;;15.43;61.02
16094;BME280;8151;47.824;12.092;2023-05-31T05:28:21;96585.97;;;15.42;61.18
16094;BME280;8151;47.824;12.092;2023-05-31T05:30:50;96596.25;;;15.45;61.23
16094;BME280;8151;47.824;12.092;2023-05-31T05:33:18;96596.09;;;15.53;61.29
16094;BME280;8151;47.824;12.092;2023-05-31T05:35:47;96613.13;;;15.52;61.27
16094;BME280;8151;47.824;12.092;2023-05-31T05:38:17;96606.03;;;15.38;61.75
16094;BME280;8151;47.824;12.092;2023-05-31T05:40:45;96609.72;;;15.37;61.86
16094;BME280;8151;47.824;12.092;2023-05-31T05:43:14;96606.34;;;15.50;61.72
16094;BME280;8151;47.824;12.092;2023-05-31T05:45:42;96595.97;;;15.62;61.53
16094;BME280;8151;47.824;12.092;2023-05-31T05:48:12;96603.19;;;15.68;61.18
16094;BME280;8151;47.824;12.092;2023-05-31T05:50:41;96611.19;;;15.68;61.31
16094;BME280;8151;47.824;12.092;2023-05-31T05:53:09;96607.00;;;15.80;61.00
16094;BME280;8151;47.824;12.092;2023-05-31T05:55:48;96606.88;;;15.95;61.01
16094;BME280;8151;47.824;12.092;2023-05-31T05:58:17;96610.84;;;16.06;60.76
16094;BME280;8151;47.824;12.092;2023-05-31T06:00:46;96600.19;;;16.12;60.54
16094;BME280;8151;47.824;12.092;2023-05-31T06:03:14;96607.03;;;16.22;60.69
16094;BME280;8151;47.824;12.092;2023-05-31T06:05:43;96599.25;;;16.27;60.43
16094;BME280;8151;47.824;12.092;2023-05-31T06:08:12;96605.66;;;16.32;60.51
16094;BME280;8151;47.824;12.092;2023-05-31T06:10:42;96611.00;;;16.32;60.41
16094;BME280;8151;47.824;12.092;2023-05-31T06:13:12;96608.72;;;16.29;60.83
16094;BME280;8151;47.824;12.092;2023-05-31T06:15:40;96614.06;;;16.29;60.97
16094;BME280;8151;47.824;12.092;2023-05-31T06:18:09;96615.91;;;16.36;61.00
16094;BME280;8151;47.824;12.092;2023-05-31T06:20:41;96610.63;;;16.42;61.19
16094;BME280;8151;47.824;12.092;2023-05-31T06:23:10;96618.66;;;16.49;60.94
16094;BME280;8151;47.824;12.092;2023-05-31T06:25:42;96609.03;;;16.61;60.58
16094;BME280;8151;47.824;12.092;2023-05-31T06:28:11;96614.22;;;16.69;60.35
16094;BME280;8151;47.824;12.092;2023-05-31T06:30:40;96616.72;;;16.78;60.07
16094;BME280;8151;47.824;12.092;2023-05-31T06:33:11;96608.94;;;16.83;59.88
16094;BME280;8151;47.824;12.092;2023-05-31T06:35:41;96611.44;;;16.91;59.88
16094;BME280;8151;47.824;12.092;2023-05-31T06:38:13;96606.28;;;16.96;59.71
16094;BME280;8151;47.824;12.092;2023-05-31T06:40:45;96606.91;;;16.98;59.48
16094;BME280;8151;47.824;12.092;2023-05-31T06:43:13;96605.88;;;17.06;59.20
16094;BME280;8151;47.824;12.092;2023-05-31T06:45:42;96601.59;;;17.11;59.52
16094;BME280;8151;47.824;12.092;2023-05-31T06:48:13;96596.88;;;17.20;59.44
16094;BME280;8151;47.824;12.092;2023-05-31T06:50:42;96608.63;;;17.26;59.45
16094;BME280;8151;47.824;12.092;2023-05-31T06:53:11;96609.22;;;17.28;59.34
16094;BME280;8151;47.824;12.092;2023-05-31T06:55:41;96608.81;;;17.24;59.42
16094;BME280;8151;47.824;12.092;2023-05-31T06:58:13;96604.47;;;17.17;59.71
16094;BME280;8151;47.824;12.092;2023-05-31T07:00:42;96607.78;;;17.19;59.68
16094;BME280;8151;47.824;12.092;2023-05-31T07:03:13;96602.03;;;17.22;59.59
16094;BME280;8151;47.824;12.092;2023-05-31T07:05:42;96598.94;;;17.25;59.38
16094;BME280;8151;47.824;12.092;2023-05-31T07:08:13;96606.97;;;17.31;59.26
16094;BME280;8151;47.824;12.092;2023-05-31T07:10:43;96599.13;;;17.37;59.03
16094;BME280;8151;47.824;12.092;2023-05-31T07:13:14;96588.84;;;17.40;58.94
16094;BME280;8151;47.824;12.092;2023-05-31T07:15:43;96592.16;;;17.49;58.93
16094;BME280;8151;47.824;12.092;2023-05-31T07:18:13;96589.69;;;17.61;58.84
16094;BME280;8151;47.824;12.092;2023-05-31T07:20:41;96590.06;;;17.71;58.50
16094;BME280;8151;47.824;12.092;2023-05-31T07:23:10;96589.03;;;17.79;58.32
16094;BME280;8151;47.824;12.092;2023-05-31T07:25:42;96598.34;;;17.89;58.30
16094;BME280;8151;47.824;12.092;2023-05-31T07:28:10;96589.03;;;17.99;58.39
16094;BME280;8151;47.824;12.092;2023-05-31T07:30:41;96586.75;;;18.09;58.31
16094;BME280;8151;47.824;12.092;2023-05-31T07:33:09;96587.97;;;18.13;58.15
16094;BME280;8151;47.824;12.092;2023-05-31T07:35:38;96585.88;;;18.22;57.98
16094;BME280;8151;47.824;12.092;2023-05-31T07:38:07;96580.06;;;18.32;57.52
16094;BME280;8151;47.824;12.092;2023-05-31T07:40:36;96575.91;;;18.42;57.42
16094;BME280;8151;47.824;12.092;2023-05-31T07:43:04;96588.41;;;18.55;57.38
16094;BME280;8151;47.824;12.092;2023-05-31T07:45:33;96587.75;;;18.66;56.84
16094;BME280;8151;47.824;12.092;2023-05-31T07:48:04;96574.94;;;18.75;56.16
16094;BME280;8151;47.824;12.092;2023-05-31T07:50:32;96569.13;;;18.85;55.65
16094;BME280;8151;47.824;12.092;2023-05-31T07:53:01;96571.56;;;18.93;55.50
16094;BME280;8151;47.824;12.092;2023-05-31T07:55:29;96570.28;;;19.02;55.10
16094;BME280;8151;47.824;12.092;2023-05-31T07:57:58;96569.78;;;19.12;55.31
16094;BME280;8151;47.824;12.092;2023-05-31T08:00:27;96557.38;;;19.18;55.16
16094;BME280;8151;47.824;12.092;2023-05-31T08:03:00;96561.25;;;19.22;55.33
16094;BME280;8151;47.824;12.092;2023-05-31T08:05:31;96555.63;;;19.30;55.29
16094;BME280;8151;47.824;12.092;2023-05-31T08:07:59;96554.09;;;19.41;55.00
16094;BME280;8151;47.824;12.092;2023-05-31T08:10:28;96551.50;;;19.53;54.78
16094;BME280;8151;47.824;12.092;2023-05-31T08:12:58;96552.03;;;19.61;54.20
16094;BME280;8151;47.824;12.092;2023-05-31T08:15:26;96546.16;;;19.71;54.01
16094;BME280;8151;47.824;12.092;2023-05-31T08:17:55;96541.38;;;19.80;53.68
16094;BME280;8151;47.824;12.092;2023-05-31T08:20:23;96552.03;;;19.86;53.71
16094;BME280;8151;47.824;12.092;2023-05-31T08:22:58;96549.88;;;19.95;53.41
16094;BME280;8151;47.824;12.092;2023-05-31T08:25:27;96545.50;;;20.01;53.22
16094;BME280;8151;47.824;12.092;2023-05-31T08:27:55;96543.31;;;20.10;52.88
16094;BME280;8151;47.824;12.092;2023-05-31T08:30:24;96545.25;;;20.21;52.64
16094;BME280;8151;47.824;12.092;2023-05-31T08:32:53;96544.50;;;20.32;52.33
16094;BME280;8151;47.824;12.092;2023-05-31T08:35:24;96552.25;;;20.40;51.94
16094;BME280;8151;47.824;12.092;2023-05-31T08:38:02;96542.25;;;20.48;51.98
16094;BME280;8151;47.824;12.092;2023-05-31T08:40:31;96536.19;;;20.52;51.73
16094;BME280;8151;47.824;12.092;2023-05-31T08:43:00;96539.84;;;20.58;51.35
16094;BME280;8151;47.824;12.092;2023-05-31T08:45:34;96534.31;;;20.71;50.95
16094;BME280;8151;47.824;12.092;2023-05-31T08:48:10;96538.31;;;20.80;50.58
16094;BME280;8151;47.824;12.092;2023-05-31T08:50:42;96538.34;;;20.92;50.28
16094;BME280;8151;47.824;12.092;2023-05-31T08:53:17;96534.88;;;21.03;49.99
16094;BME280;8151;47.824;12.092;2023-05-31T08:55:47;96538.03;;;21.12;49.69
16094;BME280;8151;47.824;12.092;2023-05-31T08:58:18;96533.59;;;21.18;49.55
16094;BME280;8151;47.824;12.092;2023-05-31T09:00:48;96527.06;;;21.26;49.38
16094;BME280;8151;47.824;12.092;2023-05-31T09:03:18;96535.88;;;21.33;48.88
16094;BME280;8151;47.824;12.092;2023-05-31T09:05:54;96521.69;;;21.37;48.65
16094;BME280;8151;47.824;12.092;2023-05-31T09:08:24;96528.88;;;21.43;48.60
16094;BME280;8151;47.824;12.092;2023-05-31T09:10:52;96532.50;;;21.49;48.24
16094;BME280;8151;47.824;12.092;2023-05-31T09:13:21;96537.78;;;21.56;47.87
16094;BME280;8151;47.824;12.092;2023-05-31T09:15:51;96522.53;;;21.61;47.47
16094;BME280;8151;47.824;12.092;2023-05-31T09:18:21;96521.16;;;21.71;47.19
16094;BME280;8151;47.824;12.092;2023-05-31T09:20:52;96525.72;;;21.82;46.83
16094;BME280;8151;47.824;12.092;2023-05-31T09:23:24;96521.25;;;21.88;46.60
16094;BME280;8151;47.824;12.092;2023-05-31T09:25:52;96534.25;;;21.91;46.47
16094;BME280;8151;47.824;12.092;2023-05-31T09:28:22;96532.16;;;21.93;46.20
16094;BME280;8151;47.824;12.092;2023-05-31T09:31:01;96525.09;;;22.03;45.44
16094;BME280;8151;47.824;12.092;2023-05-31T09:33:37;96513.69;;;22.13;45.07
16094;BME280;8151;47.824;12.092;2023-05-31T09:36:09;96523.66;;;22.25;45.02
16094;BME280;8151;47.824;12.092;2023-05-31T09:38:40;96514.50;;;22.37;44.57
16094;BME280;8151;47.824;12.092;2023-05-31T09:41:13;96507.91;;;22.45;44.27
16094;BME280;8151;47.824;12.092;2023-05-31T09:43:43;96507.03;;;22.56;44.03
16094;BME280;8151;47.824;12.092;2023-05-31T09:46:13;96495.88;;;22.65;43.73
16094;BME280;8151;47.824;12.092;2023-05-31T09:48:59;96494.78;;;22.66;43.72
16094;BME280;8151;47.824;12.092;2023-05-31T09:51:29;96495.88;;;22.65;43.79
16094;BME280;8151;47.824;12.092;2023-05-31T09:54:01;96494.31;;;22.69;43.74
16094;BME280;8151;47.824;12.092;2023-05-31T09:56:36;96494.91;;;22.71;43.38
16094;BME280;8151;47.824;12.092;2023-05-31T09:59:05;96501.22;;;22.76;43.18
16094;BME280;8151;47.824;12.092;2023-05-31T10:01:35;96506.44;;;22.83;42.77
16094;BME280;8151;47.824;12.092;2023-05-31T10:04:04;96492.81;;;22.90;42.58
16094;BME280;8151;47.824;12.092;2023-05-31T10:06:33;96497.56;;;22.99;42.36
16094;BME280;8151;47.824;12.092;2023-05-31T10:09:05;96492.59;;;23.08;42.08
16094;BME280;8151;47.824;12.092;2023-05-31T10:11:36;96494.06;;;23.16;41.68
16094;BME280;8151;47.824;12.092;2023-05-31T10:14:08;96493.94;;;23.23;41.46
16094;BME280;8151;47.824;12.092;2023-05-31T10:16:45;96485.56;;;23.24;41.34
16094;BME280;8151;47.824;12.092;2023-05-31T10:19:30;96490.00;;;23.30;40.79
16094;BME280;8151;47.824;12.092;2023-05-31T10:22:00;96487.44;;;23.41;40.98
16094;BME280;8151;47.824;12.092;2023-05-31T10:24:41;96488.25;;;23.41;41.01
16094;BME280;8151;47.824;12.092;2023-05-31T10:27:17;96484.31;;;23.49;40.69
16094;BME280;8151;47.824;12.092;2023-05-31T10:29:51;96478.56;;;23.62;40.33
16094;BME280;8151;47.824;12.092;2023-05-31T10:32:23;96477.00;;;23.66;40.05
16094;BME280;8151;47.824;12.092;2023-05-31T10:34:53;96475.53;;;23.75;40.26
16094;BME280;8151;47.824;12.092;2023-05-31T10:37:22;96477.63;;;23.90;39.95
16094;BME280;8151;47.824;12.092;2023-05-31T10:39:55;96471.81;;;23.98;40.15
16094;BME280;8151;47.824;12.092;2023-05-31T10:42:33;96472.13;;;24.02;39.84
16094;BME280;8151;47.824;12.092;2023-05-31T10:45:10;96477.09;;;24.10;40.13
16094;BME280;8151;47.824;12.092;2023-05-31T10:47:49;96466.38;;;24.21;39.64
16094;BME280;8151;47.824;12.092;2023-05-31T10:50:20;96462.47;;;24.33;39.53
16094;BME280;8151;47.824;12.092;2023-05-31T10:52:49;96465.28;;;24.44;39.17
16094;BME280;8151;47.824;12.092;2023-05-31T10:55:22;96454.78;;;24.47;38.87
16094;BME280;8151;47.824;12.092;2023-05-31T10:57:53;96445.13;;;24.51;39.17
16094;BME280;8151;47.824;12.092;2023-05-31T11:00:23;96453.28;;;24.56;38.43
16094;BME280;8151;47.824;12.092;2023-05-31T11:02:53;96444.47;;;24.66;38.13
16094;BME280;8151;47.824;12.092;2023-05-31T11:05:27;96448.59;;;24.74;37.81
16094;BME280;8151;47.824;12.092;2023-05-31T11:07:57;96448.13;;;24.82;38.33
16094;BME280;8151;47.824;12.092;2023-05-31T11:10:30;96440.25;;;24.81;38.04
16094;BME280;8151;47.824;12.092;2023-05-31T11:13:02;96440.25;;;24.81;38.03
16094;BME280;8151;47.824;12.092;2023-05-31T11:15:41;96445.19;;;24.89;37.63
16094;BME280;8151;47.824;12.092;2023-05-31T11:18:22;96446.66;;;25.02;37.13
16094;BME280;8151;47.824;12.092;2023-05-31T11:20:50;96431.59;;;25.16;37.09
16094;BME280;8151;47.824;12.092;2023-05-31T11:23:31;96426.81;;;25.23;37.13
16094;BME280;8151;47.824;12.092;2023-05-31T11:26:10;96419.53;;;25.29;37.39
16094;BME280;8151;47.824;12.092;2023-05-31T11:28:55;96419.84;;;25.38;37.37
16094;BME280;8151;47.824;12.092;2023-05-31T11:31:55;96416.38;;;25.42;37.39
16094;BME280;8151;47.824;12.092;2023-05-31T11:34:26;96427.50;;;25.46;37.27
16094;BME280;8151;47.824;12.092;2023-05-31T11:36:57;96424.00;;;25.50;37.25
16094;BME280;8151;47.824;12.092;2023-05-31T11:42:52;96420.53;;;25.60;37.18
16094;BME280;8151;47.824;12.092;2023-05-31T11:45:25;96417.31;;;25.63;37.16
16094;BME280;8151;47.824;12.092;2023-05-31T11:50:54;96421.19;;;25.83;36.46
16094;BME280;8151;47.824;12.092;2023-05-31T11:53:23;96418.00;;;25.91;36.56
16094;BME280;8151;47.824;12.092;2023-05-31T11:55:54;96424.00;;;25.98;36.22
16094;BME280;8151;47.824;12.092;2023-05-31T11:58:27;96407.75;;;26.08;35.97
16094;BME280;8151;47.824;12.092;2023-05-31T12:00:58;96406.97;;;26.18;35.80
16094;BME280;8151;47.824;12.092;2023-05-31T12:03:29;96408.09;;;26.27;35.68
16094;BME280;8151;47.824;12.092;2023-05-31T12:06:00;96409.47;;;26.35;35.44
16094;BME280;8151;47.824;12.092;2023-05-31T12:08:29;96402.97;;;26.41;35.04
16094;BME280;8151;47.824;12.092;2023-05-31T12:11:01;96395.09;;;26.45;34.93
16094;BME280;8151;47.824;12.092;2023-05-31T12:13:32;96404.03;;;26.45;34.87
16094;BME280;8151;47.824;12.092;2023-05-31T12:16:03;96395.38;;;26.48;34.98
16094;BME280;8151;47.824;12.092;2023-05-31T12:18:32;96397.88;;;26.60;34.81
16094;BME280;8151;47.824;12.092;2023-05-31T12:21:06;96395.97;;;26.71;34.65
16094;BME280;8151;47.824;12.092;2023-05-31T12:23:50;96389.97;;;26.79;34.52
16094;BME280;8151;47.824;12.092;2023-05-31T12:26:19;96395.97;;;26.81;34.56
16094;BME280;8151;47.824;12.092;2023-05-31T12:28:51;96386.22;;;26.85;34.21
16094;BME280;8151;47.824;12.092;2023-05-31T12:31:21;96393.00;;;26.93;33.74
16094;BME280;8151;47.824;12.092;2023-05-31T12:34:05;96394.06;;;27.02;33.18
16094;BME280;8151;47.824;12.092;2023-05-31T12:36:43;96388.91;;;27.06;33.38
16094;BME280;8151;47.824;12.092;2023-05-31T12:39:13;96387.25;;;27.15;33.17
16094;BME280;8151;47.824;12.092;2023-05-31T12:41:42;96388.38;;;27.24;32.87
16094;BME280;8151;47.824;12.092;2023-05-31T12:44:13;96376.41;;;27.30;32.60
16094;BME280;8151;47.824;12.092;2023-05-31T12:46:44;96380.72;;;27.32;32.71
16094;BME280;8151;47.824;12.092;2023-05-31T12:49:14;96367.13;;;27.42;32.62
16094;BME280;8151;47.824;12.092;2023-05-31T12:51:46;96382.34;;;27.43;32.58
16094;BME280;8151;47.824;12.092;2023-05-31T12:54:17;96380.16;;;27.50;32.17
16094;BME280;8151;47.824;12.092;2023-05-31T12:56:46;96381.75;;;27.56;32.17
16094;BME280;8151;47.824;12.092;2023-05-31T12:59:16;96375.78;;;27.59;32.05
16094;BME280;8151;47.824;12.092;2023-05-31T13:01:45;96371.09;;;27.70;31.82
16094;BME280;8151;47.824;12.092;2023-05-31T13:04:13;96370.03;;;27.76;32.10
16094;BME280;8151;47.824;12.092;2023-05-31T13:06:45;96380.03;;;27.81;32.22
16094;BME280;8151;47.824;12.092;2023-05-31T13:09:13;96374.88;;;27.84;32.22
16094;BME280;8151;47.824;12.092;2023-05-31T13:11:45;96379.22;;;27.91;31.82
16094;BME280;8151;47.824;12.092;2023-05-31T13:14:19;96381.41;;;27.94;31.87
16094;BME280;8151;47.824;12.092;2023-05-31T13:16:59;96374.84;;;28.00;31.72
16094;BME280;8151;47.824;12.092;2023-05-31T13:19:28;96369.38;;;28.00;31.54
16094;BME280;8151;47.824;12.092;2023-05-31T13:21:57;96369.13;;;27.96;31.26
16094;BME280;8151;47.824;12.092;2023-05-31T13:24:25;96367.50;;;27.95;31.18